createdAt,value
2019-01-29T00:03:59.785Z,97
2019-01-29T00:08:59.560Z,97
2019-01-29T00:14:00.423Z,97
2019-01-29T00:19:00.009Z,97
2019-01-29T00:23:59.736Z,97
2019-01-29T00:29:00.335Z,97
2019-01-29T00:34:00.080Z,97
2019-01-29T00:38:59.764Z,97
2019-01-29T00:44:00.399Z,97
2019-01-29T00:49:00.036Z,97
2019-01-29T00:53:59.653Z,97
2019-01-29T00:59:00.168Z,97
2019-01-29T01:03:59.898Z,97
2019-01-29T01:09:00.557Z,97
2019-01-29T01:14:00.203Z,97
2019-01-29T01:18:59.856Z,97
2019-01-29T01:24:00.480Z,97
2019-01-29T01:29:00.095Z,97
2019-01-29T01:34:00.053Z,97
2019-01-29T01:38:59.585Z,97
2019-01-29T01:44:00.246Z,97
2019-01-29T01:48:59.823Z,97
2019-01-29T01:54:00.439Z,97
2019-01-29T01:59:00.012Z,97
2019-01-29T02:04:00.694Z,97
2019-01-29T02:08:59.681Z,97
2019-01-29T02:14:00.465Z,96
2019-01-29T02:19:00.697Z,96
2019-01-29T02:24:00.350Z,96
2019-01-29T02:28:59.900Z,96
2019-01-29T02:34:00.014Z,97
2019-01-29T02:39:00.596Z,97
2019-01-29T02:44:00.420Z,96
2019-01-29T02:49:00.054Z,96
2019-01-29T02:54:00.323Z,96
2019-01-29T02:58:59.929Z,96
2019-01-29T03:04:00.675Z,96
2019-01-29T03:08:59.847Z,96
2019-01-29T03:14:00.680Z,96
2019-01-29T03:19:00.428Z,96
2019-01-29T03:24:00.203Z,96
2019-01-29T03:28:59.839Z,96
2019-01-29T03:33:59.834Z,96
2019-01-29T03:39:00.472Z,96
2019-01-29T03:44:00.186Z,96
2019-01-29T03:48:59.926Z,96
2019-01-29T03:53:59.862Z,96
2019-01-29T03:59:00.386Z,96
2019-01-29T04:04:00.129Z,96
2019-01-29T04:09:00.459Z,96
2019-01-29T04:14:00.139Z,97
2019-01-29T04:19:00.185Z,97
2019-01-29T04:23:59.854Z,97
2019-01-29T04:29:00.651Z,97
2019-01-29T04:34:00.345Z,97
2019-01-29T04:38:59.953Z,97
2019-01-29T04:44:00.687Z,97
2019-01-29T04:49:00.269Z,97
2019-01-29T04:54:00.029Z,97
2019-01-29T04:59:00.750Z,97
2019-01-29T05:04:00.632Z,98
2019-01-29T05:09:00.745Z,98
2019-01-29T05:14:00.479Z,98
2019-01-29T05:19:00.138Z,98
2019-01-29T05:24:06.616Z,98
2019-01-29T05:29:00.113Z,98
2019-01-29T05:34:00.233Z,98
2019-01-29T05:38:59.899Z,98
2019-01-29T05:44:00.567Z,98
2019-01-29T05:49:00.385Z,98
2019-01-29T05:54:00.318Z,98
2019-01-29T05:58:59.991Z,98
2019-01-29T06:04:00.789Z,98
2019-01-29T06:09:00.451Z,98
2019-01-29T06:14:00.105Z,98
2019-01-29T06:19:00.736Z,98
2019-01-29T06:24:00.412Z,98
2019-01-29T06:28:59.975Z,98
2019-01-29T06:34:00.839Z,98
2019-01-29T06:39:00.559Z,98
2019-01-29T06:44:00.145Z,98
2019-01-29T06:49:00.800Z,98
2019-01-29T06:54:00.453Z,98
2019-01-29T06:59:00.043Z,98
2019-01-29T07:04:00.880Z,98
2019-01-29T07:09:00.781Z,98
2019-01-29T07:14:00.371Z,98
2019-01-29T07:19:00.677Z,98
2019-01-29T07:24:00.394Z,98
2019-01-29T07:29:00.129Z,98
2019-01-29T07:34:00.269Z,98
2019-01-29T07:39:00.896Z,98
2019-01-29T07:44:00.479Z,98
2019-01-29T07:49:00.004Z,98
2019-01-29T07:54:00.108Z,98
2019-01-29T07:59:00.639Z,98
2019-01-29T08:04:00.328Z,98
2019-01-29T08:09:00.422Z,98
2019-01-29T08:14:00.334Z,99
2019-01-29T08:19:00.939Z,99
2019-01-29T08:24:00.565Z,99
2019-01-29T08:29:00.146Z,99
2019-01-29T08:34:00.853Z,99
2019-01-29T08:39:00.402Z,99
2019-01-29T08:44:00.118Z,99
2019-01-29T08:49:00.013Z,99
2019-01-29T08:54:00.973Z,99
2019-01-29T08:59:00.622Z,99
2019-01-29T09:04:00.278Z,99
2019-01-29T09:09:00.506Z,99
2019-01-29T09:14:00.071Z,99
2019-01-29T09:19:00.709Z,99
2019-01-29T09:24:00.277Z,99
2019-01-29T09:29:00.880Z,99
2019-01-29T09:34:00.664Z,99
2019-01-29T09:39:00.362Z,99
2019-01-29T09:44:00.977Z,99
2019-01-29T09:49:00.696Z,99
2019-01-29T09:54:01.044Z,99
2019-01-29T09:59:00.676Z,99
2019-01-29T10:04:00.404Z,99
2019-01-29T10:09:00.350Z,99
2019-01-29T10:14:01.085Z,99
2019-01-29T10:19:00.744Z,99
2019-01-29T10:24:00.446Z,99
2019-01-29T10:29:00.221Z,99
2019-01-29T10:34:00.302Z,99
2019-01-29T10:39:01.004Z,99
2019-01-29T10:44:00.685Z,98
2019-01-29T10:49:00.672Z,98
2019-01-29T10:54:00.317Z,99
2019-01-29T10:59:01.048Z,99
2019-01-29T11:04:00.975Z,98
2019-01-29T11:09:00.874Z,98
2019-01-29T11:14:00.682Z,98
2019-01-29T11:19:03.276Z,98
2019-01-29T11:24:00.333Z,98
2019-01-29T11:29:00.970Z,98
2019-01-29T11:34:00.801Z,98
2019-01-29T11:39:00.386Z,98
2019-01-29T11:44:00.977Z,98
2019-01-29T11:49:02.644Z,98
2019-01-29T11:54:00.410Z,98
2019-01-29T11:59:00.976Z,98
2019-01-29T12:04:00.763Z,97
2019-01-29T12:09:01.031Z,97
2019-01-29T12:14:00.976Z,97
2019-01-29T12:19:00.566Z,97
2019-01-29T12:24:01.239Z,96
2019-01-29T12:29:00.834Z,96
2019-01-29T12:34:01.069Z,96
2019-01-29T12:39:00.856Z,96
2019-01-29T12:44:00.523Z,95
2019-01-29T12:49:00.505Z,95
2019-01-29T12:54:00.428Z,95
2019-01-29T12:59:01.666Z,95
2019-01-29T13:04:00.533Z,95
2019-01-29T13:09:00.860Z,95
2019-01-29T13:14:00.780Z,94
2019-01-29T13:19:00.819Z,94
2019-01-29T13:24:00.690Z,93
2019-01-29T13:29:01.349Z,93
2019-01-29T13:34:01.395Z,93
2019-01-29T13:39:01.169Z,93
2019-01-29T13:44:00.929Z,92
2019-01-29T13:49:00.450Z,92
2019-01-29T13:54:00.430Z,92
2019-01-29T13:59:01.127Z,92
2019-01-29T14:04:06.077Z,92
2019-01-29T14:09:01.548Z,92
2019-01-29T14:14:01.478Z,92
2019-01-29T14:19:01.224Z,92
2019-01-29T14:24:00.881Z,92
2019-01-29T14:29:01.226Z,92
2019-01-29T14:34:01.177Z,92
2019-01-29T14:39:00.866Z,92
2019-01-29T14:44:00.593Z,92
2019-01-29T14:49:01.308Z,92
2019-01-29T14:54:00.951Z,92
2019-01-29T14:59:00.505Z,92
2019-01-29T15:04:01.103Z,92
2019-01-29T15:09:00.829Z,92
2019-01-29T15:14:00.704Z,92
2019-01-29T15:19:01.460Z,92
2019-01-29T15:24:01.445Z,92
2019-01-29T15:29:01.173Z,92
2019-01-29T15:34:00.992Z,92
2019-01-29T15:39:00.803Z,92
2019-01-29T15:44:01.125Z,92
2019-01-29T15:49:00.806Z,92
2019-01-29T15:54:00.561Z,92
2019-01-29T15:59:01.535Z,92
2019-01-29T16:04:01.626Z,92
2019-01-29T16:09:00.641Z,92
2019-01-29T16:14:01.114Z,93
2019-01-29T16:19:00.854Z,93
2019-01-29T16:24:00.661Z,92
2019-01-29T16:29:01.546Z,92
2019-01-29T16:34:01.351Z,92
2019-01-29T16:39:01.088Z,92
2019-01-29T16:44:00.865Z,93
2019-01-29T16:49:01.702Z,93
2019-01-29T16:54:01.530Z,92
2019-01-29T16:59:01.473Z,92
2019-01-29T17:04:01.353Z,93
2019-01-29T17:09:01.350Z,93
2019-01-29T17:14:01.288Z,93
2019-01-29T17:19:01.102Z,93
2019-01-29T17:24:00.861Z,93
2019-01-29T17:29:01.494Z,93
2019-01-29T17:34:01.293Z,93
2019-01-29T17:39:01.095Z,93
2019-01-29T17:44:00.806Z,93
2019-01-29T17:49:01.685Z,93
2019-01-29T17:54:00.826Z,93
2019-01-29T17:59:01.672Z,93
2019-01-29T18:04:01.705Z,94
2019-01-29T18:09:01.521Z,94
2019-01-29T18:14:00.745Z,94
2019-01-29T18:19:01.569Z,94
2019-01-29T18:24:01.418Z,94
2019-01-29T18:29:01.076Z,94
2019-01-29T18:34:01.758Z,94
2019-01-29T18:39:01.485Z,94
2019-01-29T18:44:01.122Z,94
2019-01-29T18:49:01.338Z,94
2019-01-29T18:54:01.023Z,94
2019-01-29T18:59:01.630Z,94
2019-01-29T19:04:01.493Z,94
2019-01-29T19:09:01.407Z,94
2019-01-29T19:14:00.826Z,94
2019-01-29T19:19:01.471Z,94
2019-01-29T19:24:01.266Z,95
2019-01-29T19:29:00.819Z,95
2019-01-29T19:34:01.665Z,94
2019-01-29T19:39:01.415Z,94
2019-01-29T19:44:01.139Z,95
2019-01-29T19:49:00.877Z,95
2019-01-29T19:54:01.641Z,95
2019-01-29T19:59:01.415Z,95
2019-01-29T20:04:01.297Z,95
2019-01-29T20:09:01.067Z,95
2019-01-29T20:14:01.392Z,95
2019-01-29T20:19:01.035Z,95
2019-01-29T20:24:01.661Z,95
2019-01-29T20:29:01.315Z,95
2019-01-29T20:34:01.068Z,95
2019-01-29T20:39:01.759Z,95
2019-01-29T20:44:01.450Z,95
2019-01-29T20:49:01.114Z,95
2019-01-29T20:54:01.876Z,95
2019-01-29T20:59:01.565Z,95
2019-01-29T21:04:01.403Z,95
2019-01-29T21:09:01.313Z,95
2019-01-29T21:14:01.406Z,95
2019-01-29T21:19:01.211Z,95
2019-01-29T21:24:01.920Z,95
2019-01-29T21:29:03.258Z,95
2019-01-29T21:34:01.341Z,95
2019-01-29T21:39:01.051Z,95
2019-01-29T21:44:01.707Z,95
2019-01-29T21:49:01.534Z,95
2019-01-29T21:54:01.409Z,95
2019-01-29T21:59:01.102Z,95
2019-01-29T22:04:02.029Z,95
2019-01-29T22:09:01.959Z,95
2019-01-29T22:14:01.922Z,95
2019-01-29T22:19:01.652Z,95
2019-01-29T22:24:01.555Z,95
2019-01-29T22:29:01.306Z,95
2019-01-29T22:34:01.740Z,95
2019-01-29T22:39:01.461Z,95
2019-01-29T22:44:01.191Z,96
2019-01-29T22:49:01.562Z,96
2019-01-29T22:54:01.610Z,96
2019-01-29T22:59:01.767Z,96
2019-01-29T23:04:01.348Z,96
2019-01-29T23:09:01.433Z,96
2019-01-29T23:14:01.302Z,96
2019-01-29T23:19:01.329Z,96
2019-01-29T23:24:01.155Z,96
2019-01-29T23:29:01.735Z,96
2019-01-29T23:34:01.799Z,96
2019-01-29T23:39:01.581Z,96
2019-01-29T23:44:01.336Z,96
2019-01-29T23:49:01.303Z,96
2019-01-29T23:54:01.993Z,96
2019-01-29T23:59:01.384Z,96
